Waldeck, Texas
Current Conditions -  °F | °C
As of 2:35 PM on Friday 28 Nov 2014 (Local Time) from KGYB Reporting Station
Scattered Clouds Scattered Clouds  
Wind Chill: 72°   Ceiling: Unl
Heat Index: 72°   Visibility: 10mi
Dew Point: 50°   Wind: 13mph
Humidity: 47%   Direction: 200°SSW
Pressure: 30.19"   Gusts: 18mph
Location:  30.2279°N, 96.7713°W
Report Text: KGYB 282035Z AUTO 20011G16KT 10SM SCT045 22/10 A3019 RMK AO2 T02200101
Loading
Personal Weather Stations






























Interactive Weather Map New forecast layout! Learn more

10-Day Weather Forecast

Advertisements
Track Severe Weather on mobile